createdAt,value
2022-11-25T00:04:37.397Z,98416.44
2022-11-25T00:09:59.322Z,98414.06
2022-11-25T00:15:20.990Z,98416.58
2022-11-25T00:20:42.981Z,98420.10
2022-11-25T00:26:10.735Z,98426.55
2022-11-25T00:31:35.150Z,98424.54
2022-11-25T00:36:57.301Z,98430.55
2022-11-25T00:42:38.294Z,98435.63
2022-11-25T00:48:00.226Z,98440.35
2022-11-25T00:53:22.202Z,98443.33
2022-11-25T00:58:44.731Z,98447.63
2022-11-25T01:04:07.720Z,98448.16
2022-11-25T01:09:31.027Z,98449.16
2022-11-25T01:14:52.981Z,98451.38
2022-11-25T01:20:16.748Z,98455.50
2022-11-25T01:25:40.155Z,98454.21
2022-11-25T01:31:10.855Z,98449.50
2022-11-25T01:36:33.143Z,98444.51
2022-11-25T01:41:54.779Z,98447.95
2022-11-25T01:47:19.409Z,98446.89
2022-11-25T01:52:44.650Z,98445.22
2022-11-25T01:58:09.662Z,98445.88
2022-11-25T02:03:35.490Z,98451.36
2022-11-25T02:09:04.593Z,98452.10
2022-11-25T02:14:26.817Z,98455.25
2022-11-25T02:20:02.203Z,98454.42
2022-11-25T02:25:31.953Z,98452.55
2022-11-25T02:30:54.282Z,98454.84
2022-11-25T02:36:21.732Z,98456.41
2022-11-25T02:41:53.295Z,98462.24
2022-11-25T02:47:15.834Z,98461.21
2022-11-25T02:52:37.707Z,98461.92
2022-11-25T02:57:59.584Z,98462.98
2022-11-25T03:03:22.097Z,98464.77
2022-11-25T03:08:44.446Z,98464.62
2022-11-25T03:14:07.780Z,98463.88
2022-11-25T03:19:29.912Z,98463.25
2022-11-25T03:24:51.849Z,98465.00
2022-11-25T03:30:17.817Z,98476.39
2022-11-25T03:35:40.718Z,98477.66
2022-11-25T03:41:02.745Z,98480.44
2022-11-25T03:46:24.855Z,98485.15
2022-11-25T03:51:49.214Z,98488.96
2022-11-25T03:57:12.346Z,98491.85
2022-11-25T04:02:34.146Z,98486.47
2022-11-25T04:07:58.703Z,98487.85
2022-11-25T04:13:21.494Z,98490.77
2022-11-25T04:18:43.176Z,98494.73
2022-11-25T04:24:05.742Z,98492.30
2022-11-25T04:29:29.443Z,98497.35
2022-11-25T04:34:51.473Z,98496.48
2022-11-25T04:40:14.606Z,98497.35
2022-11-25T04:51:24.856Z,98500.27
2022-11-25T04:56:51.101Z,98502.41
2022-11-25T05:02:15.261Z,98504.17
2022-11-25T05:07:41.743Z,98512.30
2022-11-25T05:13:03.916Z,98526.27
2022-11-25T05:18:26.169Z,98537.58
2022-11-25T05:23:50.600Z,98541.22
2022-11-25T05:29:17.625Z,98541.45
2022-11-25T05:34:43.378Z,98542.62
2022-11-25T05:40:06.105Z,98548.41
2022-11-25T05:45:27.949Z,98549.15
2022-11-25T05:50:50.064Z,98550.20
2022-11-25T05:56:14.803Z,98556.67
2022-11-25T06:02:15.049Z,98560.02
2022-11-25T06:07:37.444Z,98564.29
2022-11-25T06:12:59.427Z,98565.92
2022-11-25T06:18:21.537Z,98564.77
2022-11-25T06:23:47.215Z,98573.69
2022-11-25T06:29:10.434Z,98575.92
2022-11-25T06:34:33.374Z,98573.88
2022-11-25T06:39:55.898Z,98573.60
2022-11-25T06:45:17.998Z,98571.14
2022-11-25T06:50:40.159Z,98580.75
2022-11-25T06:56:11.047Z,98580.65
2022-11-25T07:01:32.776Z,98586.79
2022-11-25T07:06:54.880Z,98590.91
2022-11-25T07:12:16.907Z,98588.16
2022-11-25T07:17:38.906Z,98592.21
2022-11-25T07:23:01.172Z,98599.01
2022-11-25T07:28:23.298Z,98608.34
2022-11-25T07:33:45.864Z,98607.19
2022-11-25T07:39:12.976Z,98613.55
2022-11-25T07:44:35.310Z,98618.00
2022-11-25T07:50:17.106Z,98628.68
2022-11-25T07:55:38.935Z,98624.70
2022-11-25T08:01:05.249Z,98626.47
2022-11-25T08:06:29.126Z,98631.27
2022-11-25T08:11:51.347Z,98635.35
2022-11-25T08:17:13.377Z,98637.51
2022-11-25T08:22:35.309Z,98637.54
2022-11-25T08:27:59.444Z,98639.05
2022-11-25T08:33:21.071Z,98642.05
2022-11-25T08:38:44.405Z,98643.23
2022-11-25T08:44:08.342Z,98647.67
2022-11-25T08:49:32.755Z,98650.63
2022-11-25T08:54:58.623Z,98654.02
2022-11-25T09:00:21.570Z,98652.82
2022-11-25T09:05:46.850Z,98658.06
2022-11-25T09:11:08.985Z,98660.77
2022-11-25T09:16:31.180Z,98662.15
2022-11-25T09:21:53.094Z,98668.11
2022-11-25T09:27:15.122Z,98667.05
2022-11-25T09:32:37.146Z,98663.17
2022-11-25T09:37:59.322Z,98662.29
2022-11-25T09:43:52.514Z,98669.20
2022-11-25T09:49:46.785Z,98668.13
2022-11-25T09:55:22.088Z,98666.23
2022-11-25T10:00:46.373Z,98663.32
2022-11-25T10:06:19.048Z,98665.17
2022-11-25T10:11:51.410Z,98662.88
2022-11-25T10:17:34.608Z,98670.52
2022-11-25T10:23:01.137Z,98664.81
2022-11-25T10:28:25.703Z,98664.54
2022-11-25T10:33:53.265Z,98662.23
2022-11-25T10:39:24.456Z,98668.45
2022-11-25T10:44:46.532Z,98667.29
2022-11-25T10:50:24.721Z,98665.05
2022-11-25T10:56:10.431Z,98670.98
2022-11-25T11:01:32.296Z,98663.14
2022-11-25T11:06:54.090Z,98664.73
2022-11-25T11:12:21.925Z,98662.57
2022-11-25T11:17:44.310Z,98671.09
2022-11-25T11:23:12.444Z,98669.57
2022-11-25T11:28:35.049Z,98669.21
2022-11-25T11:34:13.950Z,98668.59
2022-11-25T11:39:40.931Z,98672.61
2022-11-25T11:45:23.995Z,98673.80
2022-11-25T11:50:49.091Z,98671.14
2022-11-25T11:56:41.352Z,98667.71
2022-11-25T12:02:20.744Z,98677.41
2022-11-25T12:08:07.084Z,98673.20
2022-11-25T12:13:43.924Z,98667.46
2022-11-25T12:19:05.986Z,98663.02
2022-11-25T12:24:46.260Z,98668.80
2022-11-25T12:30:12.953Z,98677.12
2022-11-25T12:35:52.221Z,98679.77
2022-11-25T12:41:24.707Z,98679.36
2022-11-25T12:46:51.226Z,98677.64
2022-11-25T12:52:59.796Z,98678.23
2022-11-25T12:58:35.038Z,98673.58
2022-11-25T13:04:30.752Z,98674.73
2022-11-25T13:10:20.326Z,98678.36
2022-11-25T13:15:44.693Z,98682.59
2022-11-25T13:21:08.740Z,98685.54
2022-11-25T13:26:36.167Z,98690.95
2022-11-25T13:32:00.175Z,98694.54
2022-11-25T13:37:40.194Z,98694.05
2022-11-25T13:43:02.156Z,98692.61
2022-11-25T13:48:29.505Z,98697.64
2022-11-25T13:54:04.976Z,98696.94
2022-11-25T13:59:42.748Z,98698.44
2022-11-25T14:05:26.375Z,98699.18
2022-11-25T14:11:07.165Z,98701.76
2022-11-25T14:16:41.354Z,98710.05
2022-11-25T14:22:11.922Z,98709.17
2022-11-25T14:27:35.775Z,98711.52
2022-11-25T14:33:02.919Z,98717.55
2022-11-25T14:39:01.823Z,98717.70
2022-11-25T14:44:25.705Z,98720.02
2022-11-25T14:50:00.193Z,98720.79
2022-11-25T14:55:31.642Z,98724.23
2022-11-25T15:01:07.058Z,98726.83
2022-11-25T15:06:34.137Z,98730.81
2022-11-25T15:11:59.576Z,98728.08
2022-11-25T15:17:32.674Z,98729.91
2022-11-25T15:22:54.678Z,98727.92
2022-11-25T15:28:17.009Z,98735.45
2022-11-25T15:33:39.097Z,98736.21
2022-11-25T15:39:19.635Z,98740.88
2022-11-25T15:44:53.844Z,98745.11
2022-11-25T15:50:20.682Z,98741.35
2022-11-25T15:55:42.779Z,98743.79
2022-11-25T16:01:16.047Z,98744.39
2022-11-25T16:06:53.142Z,98742.77
2022-11-25T16:12:17.167Z,98742.33
2022-11-25T16:17:39.186Z,98747.54
2022-11-25T16:23:07.105Z,98746.04
2022-11-25T16:28:29.070Z,98749.34
2022-11-25T16:34:01.446Z,98756.45
2022-11-25T16:39:23.030Z,98756.45
2022-11-25T16:44:48.380Z,98761.52
2022-11-25T16:50:14.577Z,98762.08
2022-11-25T16:55:40.718Z,98764.71
2022-11-25T17:01:02.599Z,98762.65
2022-11-25T17:06:26.622Z,98772.54
2022-11-25T17:11:54.713Z,98778.14
2022-11-25T17:17:24.059Z,98783.73
2022-11-25T17:22:46.506Z,98792.58
2022-11-25T17:28:14.892Z,98793.16
2022-11-25T17:33:36.835Z,98790.64
2022-11-25T17:38:58.900Z,98778.13
2022-11-25T17:44:24.494Z,98785.02
2022-11-25T17:49:46.686Z,98783.63
2022-11-25T17:55:09.162Z,98791.77
2022-11-25T18:00:32.957Z,98794.98
2022-11-25T18:05:54.785Z,98795.58
2022-11-25T18:11:19.206Z,98804.66
2022-11-25T18:16:41.815Z,98808.04
2022-11-25T18:22:15.787Z,98811.79
2022-11-25T18:27:37.893Z,98814.92
2022-11-25T18:33:01.555Z,98818.16
2022-11-25T18:38:23.635Z,98823.05
2022-11-25T18:43:45.956Z,98828.70
2022-11-25T18:49:15.103Z,98833.84
2022-11-25T18:54:37.142Z,98841.34
2022-11-25T19:00:30.588Z,98843.57
2022-11-25T19:05:41.677Z,98838.73
2022-11-25T19:11:03.630Z,98839.65
2022-11-25T19:16:26.502Z,98839.52
2022-11-25T19:21:48.365Z,98844.66
2022-11-25T19:27:23.524Z,98845.39
2022-11-25T19:32:51.588Z,98850.58
2022-11-25T19:38:21.412Z,98857.03
2022-11-25T19:43:43.645Z,98862.54
2022-11-25T19:49:06.189Z,98867.55
2022-11-25T19:54:29.609Z,98875.25
2022-11-25T19:59:51.566Z,98875.83
2022-11-25T20:05:22.890Z,98884.55
2022-11-25T20:10:44.860Z,98886.67
2022-11-25T20:16:34.183Z,98895.52
2022-11-25T20:21:56.680Z,98900.02
2022-11-25T20:27:19.197Z,98903.22
2022-11-25T20:32:41.167Z,98900.69
2022-11-25T20:38:03.410Z,98905.79
2022-11-25T20:43:34.549Z,98903.35
2022-11-25T20:49:02.041Z,98901.21
2022-11-25T20:54:27.059Z,98907.27
2022-11-25T20:59:48.590Z,98907.45
2022-11-25T21:05:10.317Z,98912.08
2022-11-25T21:10:35.020Z,98914.27
2022-11-25T21:15:57.823Z,98913.76
2022-11-25T21:21:26.656Z,98913.34
2022-11-25T21:26:49.725Z,98908.20
2022-11-25T21:32:23.295Z,98907.73
2022-11-25T21:37:45.341Z,98908.59
2022-11-25T21:43:19.811Z,98910.71
2022-11-25T21:48:43.390Z,98917.66
2022-11-25T21:54:05.422Z,98925.52
2022-11-25T21:59:29.051Z,98928.84
2022-11-25T22:04:51.891Z,98932.78
2022-11-25T22:10:15.255Z,98940.05
2022-11-25T22:15:37.443Z,98947.24
2022-11-25T22:21:00.385Z,98952.98
2022-11-25T22:26:31.073Z,98960.17
2022-11-25T22:31:52.847Z,98968.35
2022-11-25T22:37:22.938Z,98970.38
2022-11-25T22:42:47.510Z,98976.31
2022-11-25T22:48:10.726Z,98983.61
2022-11-25T22:53:32.829Z,98988.22
2022-11-25T22:59:00.278Z,98988.02
2022-11-25T23:04:22.141Z,98992.52
2022-11-25T23:09:46.144Z,98998.14
2022-11-25T23:15:12.183Z,98995.97
2022-11-25T23:20:36.873Z,99002.84
2022-11-25T23:25:58.956Z,99000.69
2022-11-25T23:31:21.501Z,98999.81
2022-11-25T23:36:46.026Z,99005.06
2022-11-25T23:42:18.875Z,99005.63
2022-11-25T23:47:41.839Z,99008.59
2022-11-25T23:53:06.268Z,99009.45
2022-11-25T23:58:29.599Z,99010.56
